createdAt,value
2022-08-27T00:02:19.240Z,101120.13
2022-08-27T00:04:48.043Z,101107.59
2022-08-27T00:07:16.781Z,101113.53
2022-08-27T00:09:45.250Z,101107.34
2022-08-27T00:12:14.244Z,101112.28
2022-08-27T00:14:42.530Z,101106.25
2022-08-27T00:17:11.120Z,101106.53
2022-08-27T00:19:41.577Z,101108.56
2022-08-27T00:22:12.094Z,101106.84
2022-08-27T00:24:48.551Z,101104.69
2022-08-27T00:27:18.978Z,101102.66
2022-08-27T00:29:47.674Z,101113.44
2022-08-27T00:32:16.901Z,101113.28
2022-08-27T00:34:46.981Z,101102.50
2022-08-27T00:37:15.766Z,101108.13
2022-08-27T00:39:44.144Z,101110.00
2022-08-27T00:42:12.860Z,101107.13
2022-08-27T00:44:41.658Z,101112.59
2022-08-27T00:47:15.018Z,101122.97
2022-08-27T00:49:50.336Z,101128.75
2022-08-27T00:52:23.718Z,101118.25
2022-08-27T00:54:55.692Z,101113.94
2022-08-27T00:57:24.170Z,101117.69
2022-08-27T00:59:52.524Z,101126.75
2022-08-27T01:02:21.043Z,101120.44
2022-08-27T01:04:57.198Z,101125.91
2022-08-27T01:07:28.592Z,101131.06
2022-08-27T01:10:00.354Z,101127.63
2022-08-27T01:12:31.338Z,101134.13
2022-08-27T01:14:59.907Z,101134.13
2022-08-27T01:17:28.743Z,101128.63
2022-08-27T01:20:03.357Z,101123.28
2022-08-27T01:22:43.511Z,101127.91
2022-08-27T01:25:16.895Z,101127.19
2022-08-27T01:27:46.529Z,101126.34
2022-08-27T01:30:18.481Z,101120.16
2022-08-27T01:32:47.961Z,101110.53
2022-08-27T01:35:17.519Z,101110.97
2022-08-27T01:37:52.427Z,101114.88
2022-08-27T01:40:23.511Z,101110.88
2022-08-27T01:42:54.731Z,101114.91
2022-08-27T01:45:26.120Z,101111.47
2022-08-27T01:47:54.958Z,101113.94
2022-08-27T01:50:27.232Z,101119.13
2022-08-27T01:52:56.254Z,101118.59
2022-08-27T01:55:28.045Z,101116.16
2022-08-27T01:57:57.750Z,101115.56
2022-08-27T02:00:29.762Z,101125.81
2022-08-27T02:02:59.378Z,101121.50
2022-08-27T02:05:29.283Z,101129.69
2022-08-27T02:07:58.908Z,101127.81
2022-08-27T02:10:38.942Z,101129.16
2022-08-27T02:13:08.269Z,101128.59
2022-08-27T02:15:38.374Z,101124.25
2022-08-27T02:18:09.744Z,101131.75
2022-08-27T02:20:38.894Z,101135.63
2022-08-27T02:23:07.505Z,101127.59
2022-08-27T02:25:37.659Z,101118.38
2022-08-27T02:28:07.697Z,101116.66
2022-08-27T02:30:37.625Z,101117.66
2022-08-27T02:33:06.924Z,101122.41
2022-08-27T02:35:40.695Z,101125.41
2022-08-27T02:38:09.331Z,101117.47
2022-08-27T02:40:39.190Z,101121.38
2022-08-27T02:45:41.505Z,101118.34
2022-08-27T02:48:10.887Z,101113.91
2022-08-27T02:50:39.708Z,101121.22
2022-08-27T02:53:08.231Z,101124.69
2022-08-27T02:55:38.324Z,101121.84
2022-08-27T02:58:09.747Z,101129.59
2022-08-27T03:00:38.283Z,101125.84
2022-08-27T03:03:06.607Z,101129.28
2022-08-27T03:05:35.027Z,101125.53
2022-08-27T03:08:03.652Z,101124.69
2022-08-27T03:10:32.235Z,101122.09
2022-08-27T03:13:02.028Z,101124.28
2022-08-27T03:15:30.387Z,101115.50
2022-08-27T03:18:16.104Z,101115.81
2022-08-27T03:20:46.877Z,101108.00
2022-08-27T03:23:17.181Z,101112.91
2022-08-27T03:25:52.323Z,101118.38
2022-08-27T03:28:25.902Z,101120.09
2022-08-27T03:30:58.525Z,101127.44
2022-08-27T03:33:27.729Z,101122.28
2022-08-27T03:35:56.146Z,101128.16
2022-08-27T03:38:26.208Z,101117.50
2022-08-27T03:40:54.932Z,101122.28
2022-08-27T03:43:26.914Z,101119.13
2022-08-27T03:46:01.598Z,101121.53
2022-08-27T03:48:31.887Z,101125.44
2022-08-27T03:51:01.194Z,101125.97
2022-08-27T03:53:29.504Z,101138.94
2022-08-27T03:55:58.216Z,101136.50
2022-08-27T03:58:28.288Z,101141.94
2022-08-27T04:00:56.632Z,101137.63
2022-08-27T04:03:26.076Z,101138.78
2022-08-27T04:05:55.880Z,101133.31
2022-08-27T04:08:25.314Z,101129.69
2022-08-27T04:10:54.940Z,101137.91
2022-08-27T04:13:24.355Z,101140.78
2022-08-27T04:15:56.431Z,101132.00
2022-08-27T04:18:24.856Z,101128.41
2022-08-27T04:20:53.735Z,101129.41
2022-08-27T04:23:22.621Z,101138.91
2022-08-27T04:25:51.395Z,101136.44
2022-08-27T04:28:19.761Z,101133.00
2022-08-27T04:30:48.661Z,101129.50
2022-08-27T04:33:18.466Z,101126.78
2022-08-27T04:35:46.752Z,101128.38
2022-08-27T04:38:15.362Z,101131.84
2022-08-27T04:41:03.168Z,101132.69
2022-08-27T04:43:31.542Z,101135.56
2022-08-27T04:46:02.526Z,101140.19
2022-08-27T04:48:32.454Z,101136.59
2022-08-27T04:51:01.247Z,101142.91
2022-08-27T04:53:30.652Z,101145.38
2022-08-27T04:55:59.245Z,101152.28
2022-08-27T04:58:27.726Z,101155.88
2022-08-27T05:01:01.515Z,101151.28
2022-08-27T05:03:31.599Z,101146.09
2022-08-27T05:06:07.241Z,101145.38
2022-08-27T05:08:36.101Z,101154.53
2022-08-27T05:11:04.557Z,101147.50
2022-08-27T05:13:32.847Z,101143.03
2022-08-27T05:16:04.653Z,101143.16
2022-08-27T05:18:42.255Z,101137.84
2022-08-27T05:21:20.367Z,101147.31
2022-08-27T05:23:49.102Z,101153.66
2022-08-27T05:26:17.771Z,101153.78
2022-08-27T05:28:46.162Z,101155.78
2022-08-27T05:31:16.894Z,101155.66
2022-08-27T05:33:48.060Z,101155.91
2022-08-27T05:36:19.798Z,101154.19
2022-08-27T05:38:49.408Z,101148.88
2022-08-27T05:41:22.191Z,101157.22
2022-08-27T05:43:50.815Z,101161.81
2022-08-27T05:46:22.441Z,101157.22
2022-08-27T05:48:54.468Z,101158.22
2022-08-27T05:51:26.848Z,101166.41
2022-08-27T05:53:58.381Z,101158.94
2022-08-27T05:56:29.440Z,101168.13
2022-08-27T05:59:15.951Z,101162.81
2022-08-27T06:01:47.656Z,101158.50
2022-08-27T06:04:19.277Z,101156.88
2022-08-27T06:06:49.447Z,101160.47
2022-08-27T06:09:20.930Z,101155.16
2022-08-27T06:11:49.876Z,101158.75
2022-08-27T06:14:18.292Z,101165.06
2022-08-27T06:16:46.680Z,101163.09
2022-08-27T06:19:17.250Z,101157.75
2022-08-27T06:21:46.186Z,101167.69
2022-08-27T06:24:28.902Z,101164.09
2022-08-27T06:26:57.670Z,101171.41
2022-08-27T06:29:26.031Z,101166.81
2022-08-27T06:31:56.403Z,101168.22
2022-08-27T06:34:26.130Z,101176.38
2022-08-27T06:36:54.530Z,101170.47
2022-08-27T06:39:22.865Z,101165.28
2022-08-27T06:41:51.380Z,101175.34
2022-08-27T06:44:19.823Z,101179.06
2022-08-27T06:46:48.235Z,101170.88
2022-08-27T06:49:16.625Z,101171.75
2022-08-27T06:51:48.830Z,101183.38
2022-08-27T06:54:20.018Z,101175.06
2022-08-27T06:56:49.572Z,101172.78
2022-08-27T06:59:20.783Z,101177.09
2022-08-27T07:01:51.366Z,101181.56
2022-08-27T07:04:22.961Z,101173.25
2022-08-27T07:07:03.184Z,101175.69
2022-08-27T07:09:33.026Z,101176.13
2022-08-27T07:12:02.347Z,101176.59
2022-08-27T07:14:37.126Z,101177.47
2022-08-27T07:17:11.051Z,101179.47
2022-08-27T07:19:44.174Z,101192.13
2022-08-27T07:22:14.454Z,101187.38
2022-08-27T07:24:42.906Z,101185.50
2022-08-27T07:27:11.517Z,101183.66
2022-08-27T07:29:40.163Z,101189.25
2022-08-27T07:32:08.679Z,101186.66
2022-08-27T07:34:37.025Z,101180.34
2022-08-27T07:37:05.760Z,101192.25
2022-08-27T07:39:38.003Z,101194.00
2022-08-27T07:42:24.337Z,101195.72
2022-08-27T07:44:52.942Z,101197.44
2022-08-27T07:47:21.431Z,101205.34
2022-08-27T07:49:50.341Z,101207.66
2022-08-27T07:52:19.751Z,101210.00
2022-08-27T07:54:51.954Z,101207.13
2022-08-27T07:57:20.271Z,101213.91
2022-08-27T07:59:48.864Z,101208.19
2022-08-27T08:02:17.209Z,101218.69
2022-08-27T08:04:45.681Z,101210.94
2022-08-27T08:07:14.035Z,101219.84
2022-08-27T08:09:42.634Z,101211.25
2022-08-27T08:12:12.695Z,101221.88
2022-08-27T08:14:41.574Z,101215.28
2022-08-27T08:17:12.345Z,101222.06
2022-08-27T08:19:41.543Z,101234.56
2022-08-27T08:22:10.235Z,101235.44
2022-08-27T08:24:38.605Z,101235.97
2022-08-27T08:27:07.969Z,101241.72
2022-08-27T08:29:38.925Z,101238.28
2022-08-27T08:32:08.688Z,101242.75
2022-08-27T08:34:37.585Z,101242.06
2022-08-27T08:37:07.928Z,101242.34
2022-08-27T08:39:38.358Z,101238.19
2022-08-27T08:42:10.332Z,101240.53
2022-08-27T08:44:48.589Z,101245.00
2022-08-27T08:47:23.481Z,101249.03
2022-08-27T08:49:58.383Z,101249.03
2022-08-27T08:52:39.528Z,101258.53
2022-08-27T08:55:26.572Z,101259.16
2022-08-27T08:58:15.630Z,101260.59
2022-08-27T09:00:49.990Z,101259.13
2022-08-27T09:03:18.575Z,101255.13
2022-08-27T09:05:54.770Z,101254.84
2022-08-27T09:08:37.682Z,101260.31
2022-08-27T09:11:19.840Z,101268.50
2022-08-27T09:13:52.487Z,101256.41
2022-08-27T09:16:23.146Z,101262.44
2022-08-27T09:18:54.496Z,101260.28
2022-08-27T09:21:34.651Z,101256.25
2022-08-27T09:24:14.800Z,101267.47
2022-08-27T09:26:45.494Z,101268.88
2022-08-27T09:29:20.035Z,101269.16
2022-08-27T09:31:57.824Z,101263.38
2022-08-27T09:34:35.892Z,101260.34
2022-08-27T09:37:11.994Z,101264.81
2022-08-27T09:39:49.884Z,101254.72
2022-08-27T09:42:37.875Z,101250.53
2022-08-27T09:45:11.963Z,101255.88
2022-08-27T09:47:47.768Z,101255.72
2022-08-27T09:50:20.130Z,101249.97
2022-08-27T09:52:55.325Z,101247.66
2022-08-27T09:55:40.714Z,101250.41
2022-08-27T09:58:20.057Z,101252.66
2022-08-27T10:00:50.021Z,101253.81
2022-08-27T10:03:23.740Z,101255.25
2022-08-27T10:05:54.255Z,101251.69
2022-08-27T10:08:31.115Z,101250.84
2022-08-27T10:11:04.747Z,101246.66
2022-08-27T10:13:41.826Z,101256.47
2022-08-27T10:17:05.363Z,101256.91
2022-08-27T10:19:54.959Z,101249.28
2022-08-27T10:22:41.109Z,101249.16
2022-08-27T10:25:23.417Z,101257.97
2022-08-27T10:28:04.998Z,101250.47
2022-08-27T10:30:48.782Z,101251.91
2022-08-27T10:33:26.899Z,101251.44
2022-08-27T10:36:09.772Z,101247.84
2022-08-27T10:38:44.866Z,101243.53
2022-08-27T10:41:18.926Z,101242.38
2022-08-27T10:44:23.903Z,101246.72
2022-08-27T10:47:08.386Z,101245.53
2022-08-27T10:49:47.820Z,101257.44
2022-08-27T10:52:24.788Z,101243.03
2022-08-27T10:55:00.225Z,101251.84
2022-08-27T10:57:57.709Z,101253.00
2022-08-27T11:00:40.184Z,101251.25
2022-08-27T11:03:14.052Z,101248.38
2022-08-27T11:05:48.514Z,101255.50
2022-08-27T11:08:25.628Z,101244.63
2022-08-27T11:11:11.777Z,101252.53
2022-08-27T11:13:52.810Z,101248.94
2022-08-27T11:16:30.283Z,101245.59
2022-08-27T11:19:03.779Z,101248.13
2022-08-27T11:21:41.194Z,101240.00
2022-08-27T11:24:26.766Z,101246.59
2022-08-27T11:27:03.464Z,101241.56
2022-08-27T11:29:36.207Z,101231.22
2022-08-27T11:32:16.631Z,101230.72
2022-08-27T11:34:51.090Z,101220.88
2022-08-27T11:37:37.985Z,101239.06
2022-08-27T11:40:38.246Z,101235.34
2022-08-27T11:43:10.375Z,101237.75
2022-08-27T11:45:53.856Z,101227.78
2022-08-27T11:48:26.611Z,101234.50
2022-08-27T11:51:00.187Z,101227.22
2022-08-27T11:53:32.404Z,101222.88
2022-08-27T11:56:15.836Z,101225.88
2022-08-27T11:58:52.880Z,101222.38
2022-08-27T12:01:28.614Z,101212.44
2022-08-27T12:04:06.416Z,101215.94
2022-08-27T12:06:45.644Z,101222.84
2022-08-27T12:09:21.735Z,101215.66
2022-08-27T12:12:04.297Z,101215.00
2022-08-27T12:14:46.959Z,101218.47
2022-08-27T12:17:27.982Z,101212.66
2022-08-27T12:20:13.315Z,101213.00
2022-08-27T12:23:25.168Z,101204.38
2022-08-27T12:26:00.480Z,101215.03
2022-08-27T12:28:30.456Z,101204.69
2022-08-27T12:30:59.719Z,101207.59
2022-08-27T12:33:34.488Z,101204.59
2022-08-27T12:36:11.872Z,101212.84
2022-08-27T12:38:50.545Z,101215.91
2022-08-27T12:41:28.584Z,101215.91
2022-08-27T12:44:11.164Z,101207.53
2022-08-27T12:46:49.806Z,101213.22
2022-08-27T12:49:37.866Z,101212.56
2022-08-27T12:52:26.294Z,101202.72
2022-08-27T12:55:11.021Z,101211.13
2022-08-27T12:57:47.818Z,101219.59
2022-08-27T13:00:25.530Z,101203.19
2022-08-27T13:03:28.042Z,101202.22
2022-08-27T13:05:57.791Z,101198.22
2022-08-27T13:08:30.331Z,101198.22
2022-08-27T13:11:09.469Z,101197.88
2022-08-27T13:13:41.524Z,101197.19
2022-08-27T13:16:11.457Z,101196.16
2022-08-27T13:18:41.014Z,101193.19
2022-08-27T13:21:27.477Z,101188.97
2022-08-27T13:23:59.146Z,101192.03
2022-08-27T13:26:31.650Z,101197.69
2022-08-27T13:29:03.515Z,101185.22
2022-08-27T13:31:35.835Z,101193.22
2022-08-27T13:34:06.721Z,101189.13
2022-08-27T13:36:49.996Z,101191.03
2022-08-27T13:39:18.644Z,101190.16
2022-08-27T13:41:50.137Z,101182.78
2022-08-27T13:44:25.322Z,101191.91
2022-08-27T13:47:01.527Z,101182.22
2022-08-27T13:49:34.641Z,101176.72
2022-08-27T13:52:24.611Z,101182.56
2022-08-27T13:55:00.192Z,101176.94
2022-08-27T13:57:32.707Z,101182.44
2022-08-27T14:00:12.157Z,101183.66
2022-08-27T14:02:42.502Z,101170.34
2022-08-27T14:05:32.423Z,101169.28
2022-08-27T14:08:11.257Z,101173.53
2022-08-27T14:10:41.997Z,101177.75
2022-08-27T14:13:21.176Z,101177.00
2022-08-27T14:15:51.967Z,101171.38
2022-08-27T14:18:55.061Z,101171.44
2022-08-27T14:21:17.422Z,101160.88
2022-08-27T14:23:45.773Z,101165.22
2022-08-27T14:26:17.414Z,101169.56
2022-08-27T14:28:46.724Z,101161.84
2022-08-27T14:31:16.058Z,101165.28
2022-08-27T14:33:46.440Z,101171.50
2022-08-27T14:36:16.076Z,101171.31
2022-08-27T14:38:49.061Z,101165.66
2022-08-27T14:41:18.805Z,101167.91
2022-08-27T14:43:50.606Z,101174.63
2022-08-27T14:46:27.539Z,101178.41
2022-08-27T14:49:00.941Z,101175.28
2022-08-27T14:51:32.305Z,101177.38
2022-08-27T14:54:00.770Z,101171.34
2022-08-27T14:56:29.079Z,101165.16
2022-08-27T14:58:57.763Z,101168.97
2022-08-27T15:01:27.575Z,101169.31
2022-08-27T15:03:58.308Z,101170.00
2022-08-27T15:06:27.231Z,101167.59
2022-08-27T15:08:56.055Z,101166.03
2022-08-27T15:11:30.082Z,101168.94
2022-08-27T15:14:00.626Z,101172.91
2022-08-27T15:16:32.642Z,101181.34
2022-08-27T15:19:03.055Z,101184.41
2022-08-27T15:21:32.227Z,101175.66
2022-08-27T15:24:05.158Z,101182.69
2022-08-27T15:26:34.804Z,101183.03
2022-08-27T15:29:06.540Z,101180.44
2022-08-27T15:31:36.075Z,101180.94
2022-08-27T15:34:06.589Z,101187.47
2022-08-27T15:36:35.605Z,101181.13
2022-08-27T15:39:04.965Z,101184.91
2022-08-27T15:41:34.201Z,101175.78
2022-08-27T15:44:09.933Z,101188.50
2022-08-27T15:46:41.246Z,101180.59
2022-08-27T15:49:15.606Z,101193.66
2022-08-27T15:51:44.758Z,101191.09
2022-08-27T15:54:13.090Z,101184.06
2022-08-27T15:56:41.358Z,101188.84
2022-08-27T15:59:09.720Z,101191.06
2022-08-27T16:01:39.729Z,101187.13
2022-08-27T16:04:10.570Z,101184.00
2022-08-27T16:06:39.137Z,101181.59
2022-08-27T16:09:07.463Z,101187.09
2022-08-27T16:11:35.926Z,101181.94
2022-08-27T16:14:04.341Z,101183.13
2022-08-27T16:16:34.662Z,101190.16
2022-08-27T16:19:05.054Z,101188.78
2022-08-27T16:21:36.411Z,101181.34
2022-08-27T16:24:09.210Z,101189.91
2022-08-27T16:26:39.937Z,101181.13
2022-08-27T16:29:09.583Z,101181.47
2022-08-27T16:31:38.280Z,101179.91
2022-08-27T16:34:15.263Z,101184.88
2022-08-27T16:36:45.767Z,101192.59
2022-08-27T16:39:14.081Z,101186.72
2022-08-27T16:41:42.492Z,101181.72
2022-08-27T16:44:11.537Z,101180.50
2022-08-27T16:46:40.499Z,101187.34
2022-08-27T16:49:26.324Z,101186.13
2022-08-27T16:51:56.113Z,101191.22
2022-08-27T16:54:24.447Z,101199.81
2022-08-27T16:56:52.749Z,101185.53
2022-08-27T16:59:21.120Z,101188.78
2022-08-27T17:01:53.005Z,101196.31
2022-08-27T17:04:29.716Z,101190.63
2022-08-27T17:07:02.095Z,101192.09
2022-08-27T17:09:32.112Z,101200.97
2022-08-27T17:12:05.259Z,101205.06
2022-08-27T17:14:37.986Z,101199.34
2022-08-27T17:17:09.438Z,101202.00
2022-08-27T17:19:37.923Z,101202.84
2022-08-27T17:22:09.387Z,101207.06
2022-08-27T17:24:37.861Z,101212.34
2022-08-27T17:27:06.770Z,101213.81
2022-08-27T17:29:35.076Z,101220.09
2022-08-27T17:32:04.860Z,101215.22
2022-08-27T17:34:33.294Z,101209.53
2022-08-27T17:37:01.669Z,101214.75
2022-08-27T17:39:31.389Z,101224.47
2022-08-27T17:41:59.978Z,101226.94
2022-08-27T17:44:34.563Z,101229.44
2022-08-27T17:47:07.367Z,101235.69
2022-08-27T17:49:36.181Z,101235.44
2022-08-27T17:52:10.686Z,101240.66
2022-08-27T17:54:45.791Z,101239.56
2022-08-27T17:57:19.033Z,101239.31
2022-08-27T17:59:47.968Z,101246.53
2022-08-27T18:02:22.749Z,101259.84
2022-08-27T18:04:51.905Z,101257.84
2022-08-27T18:07:20.314Z,101261.03
2022-08-27T18:09:50.865Z,101256.44
2022-08-27T18:12:23.758Z,101256.00
2022-08-27T18:15:02.571Z,101264.81
2022-08-27T18:17:30.914Z,101261.25
2022-08-27T18:20:00.000Z,101269.19
2022-08-27T18:22:28.545Z,101268.91
2022-08-27T18:25:05.407Z,101272.53
2022-08-27T18:27:37.014Z,101274.41
2022-08-27T18:30:07.423Z,101280.59
2022-08-27T18:32:35.749Z,101285.94
2022-08-27T18:35:13.120Z,101286.63
2022-08-27T18:37:41.745Z,101288.09
2022-08-27T18:40:13.596Z,101284.28
2022-08-27T18:42:42.569Z,101285.03
2022-08-27T18:45:14.045Z,101294.78
2022-08-27T18:47:42.786Z,101290.00
2022-08-27T18:50:17.460Z,101289.88
2022-08-27T18:52:47.429Z,101286.97
2022-08-27T18:55:22.681Z,101298.72
2022-08-27T18:57:51.178Z,101289.38
2022-08-27T19:00:20.526Z,101292.63
2022-08-27T19:02:52.847Z,101296.78
2022-08-27T19:05:24.965Z,101297.63
2022-08-27T19:07:53.733Z,101301.78
2022-08-27T19:10:23.552Z,101299.56
2022-08-27T19:12:51.919Z,101295.63
2022-08-27T19:15:20.855Z,101297.88
2022-08-27T19:17:54.015Z,101305.63
2022-08-27T19:20:23.640Z,101308.78
2022-08-27T19:22:52.499Z,101317.34
2022-08-27T19:25:22.991Z,101308.72
2022-08-27T19:27:53.738Z,101306.25
2022-08-27T19:30:22.545Z,101307.50
2022-08-27T19:32:54.671Z,101313.50
2022-08-27T19:35:23.181Z,101318.75
2022-08-27T19:37:53.020Z,101314.56
2022-08-27T19:40:23.896Z,101319.53
2022-08-27T19:42:52.295Z,101325.13
2022-08-27T19:45:23.707Z,101327.00
2022-08-27T19:47:53.311Z,101333.72
2022-08-27T19:50:23.725Z,101331.28
2022-08-27T19:52:53.020Z,101332.38
2022-08-27T19:55:22.780Z,101332.50
2022-08-27T19:57:51.681Z,101331.03
2022-08-27T20:00:22.663Z,101337.75
2022-08-27T20:02:51.085Z,101328.94
2022-08-27T20:05:20.548Z,101330.09
2022-08-27T20:07:50.695Z,101331.09
2022-08-27T20:10:36.170Z,101332.34
2022-08-27T20:13:05.159Z,101325.50
2022-08-27T20:15:33.718Z,101328.50
2022-08-27T20:18:03.693Z,101338.78
2022-08-27T20:20:33.814Z,101337.34
2022-08-27T20:23:05.026Z,101333.97
2022-08-27T20:25:37.200Z,101328.78
2022-08-27T20:28:28.294Z,101329.19
2022-08-27T20:30:57.431Z,101328.69
2022-08-27T20:33:26.998Z,101327.22
2022-08-27T20:35:56.445Z,101333.91
2022-08-27T20:38:24.791Z,101337.72
2022-08-27T20:40:54.433Z,101345.31
2022-08-27T20:43:22.751Z,101338.38
2022-08-27T20:45:51.252Z,101341.47
2022-08-27T20:48:19.625Z,101349.03
2022-08-27T20:50:47.949Z,101346.69
2022-08-27T20:53:16.373Z,101351.63
2022-08-27T20:55:44.712Z,101338.41
2022-08-27T20:58:31.740Z,101344.22
2022-08-27T21:01:00.961Z,101343.72
2022-08-27T21:03:29.389Z,101343.22
2022-08-27T21:05:57.679Z,101352.66
2022-08-27T21:08:26.071Z,101354.72
2022-08-27T21:10:57.909Z,101348.66
2022-08-27T21:13:29.949Z,101344.56
2022-08-27T21:15:58.359Z,101345.78
2022-08-27T21:18:29.397Z,101350.72
2022-08-27T21:20:58.992Z,101348.34
2022-08-27T21:23:28.042Z,101341.41
2022-08-27T21:25:56.660Z,101347.25
2022-08-27T21:28:24.962Z,101348.44
2022-08-27T21:30:54.673Z,101344.25
2022-08-27T21:33:23.089Z,101349.19
2022-08-27T21:35:51.401Z,101346.81
2022-08-27T21:38:19.819Z,101340.75
2022-08-27T21:40:48.168Z,101344.69
2022-08-27T21:43:16.642Z,101343.19
2022-08-27T21:45:45.529Z,101338.00
2022-08-27T21:48:15.348Z,101342.69
2022-08-27T21:50:43.677Z,101344.78
2022-08-27T21:53:11.971Z,101347.63
2022-08-27T21:55:40.268Z,101346.97
2022-08-27T21:58:08.611Z,101349.06
2022-08-27T22:00:43.816Z,101352.91
2022-08-27T22:03:16.382Z,101359.44
2022-08-27T22:05:45.913Z,101350.53
2022-08-27T22:08:16.944Z,101357.91
2022-08-27T22:10:48.701Z,101354.44
2022-08-27T22:13:17.350Z,101360.00
2022-08-27T22:15:46.467Z,101360.38
2022-08-27T22:18:16.501Z,101356.91
2022-08-27T22:20:45.419Z,101355.38
2022-08-27T22:23:14.439Z,101364.66
2022-08-27T22:25:43.913Z,101358.69
2022-08-27T22:28:14.111Z,101362.50
2022-08-27T22:30:42.911Z,101358.16
2022-08-27T22:33:11.213Z,101364.78
2022-08-27T22:35:40.931Z,101355.88
2022-08-27T22:38:09.620Z,101357.84
2022-08-27T22:40:39.288Z,101358.19
2022-08-27T22:43:08.660Z,101360.88
2022-08-27T22:45:37.138Z,101358.41
2022-08-27T22:48:05.733Z,101354.94
2022-08-27T22:50:34.304Z,101357.66
2022-08-27T22:53:04.062Z,101357.66
2022-08-27T22:55:32.453Z,101355.06
2022-08-27T22:58:02.061Z,101360.50
2022-08-27T23:00:34.642Z,101352.47
2022-08-27T23:03:06.319Z,101357.03
2022-08-27T23:05:41.735Z,101363.53
2022-08-27T23:08:14.339Z,101361.78
2022-08-27T23:10:44.415Z,101363.75
2022-08-27T23:13:13.731Z,101360.31
2022-08-27T23:15:42.877Z,101358.56
2022-08-27T23:18:11.530Z,101354.13
2022-08-27T23:20:40.146Z,101359.78
2022-08-27T23:23:10.132Z,101362.69
2022-08-27T23:25:58.207Z,101359.22
2022-08-27T23:28:26.460Z,101357.72
2022-08-27T23:30:55.048Z,101355.13
2022-08-27T23:33:23.528Z,101346.25
2022-08-27T23:35:51.908Z,101347.31
2022-08-27T23:38:22.343Z,101348.41
2022-08-27T23:40:53.329Z,101345.91
2022-08-27T23:43:22.656Z,101344.31
2022-08-27T23:45:52.008Z,101352.56
2022-08-27T23:48:21.015Z,101340.84
2022-08-27T23:50:49.373Z,101348.97
2022-08-27T23:53:17.660Z,101351.78
2022-08-27T23:55:46.242Z,101348.19
2022-08-27T23:58:16.056Z,101346.47
